createdAt,value
2023-09-17T00:01:44.743Z,7.45
2023-09-17T00:04:12.129Z,9.02
2023-09-17T00:06:38.992Z,8.93
2023-09-17T00:09:07.613Z,6.82
2023-09-17T00:11:34.422Z,7.22
2023-09-17T00:14:01.316Z,6.18
2023-09-17T00:16:32.445Z,7.53
2023-09-17T00:19:00.508Z,5.78
2023-09-17T00:21:27.864Z,6.50
2023-09-17T00:23:54.668Z,8.38
2023-09-17T00:26:21.430Z,8.35
2023-09-17T00:28:48.706Z,7.75
2023-09-17T00:31:16.365Z,6.25
2023-09-17T00:33:43.706Z,6.97
2023-09-17T00:36:10.669Z,6.40
2023-09-17T00:38:37.451Z,6.68
2023-09-17T00:41:04.645Z,7.65
2023-09-17T00:43:31.576Z,7.35
2023-09-17T00:45:58.808Z,6.50
2023-09-17T00:48:28.161Z,6.53
2023-09-17T00:50:55.448Z,6.43
2023-09-17T00:53:22.728Z,5.95
2023-09-17T00:55:49.704Z,5.68
2023-09-17T00:58:17.035Z,6.15
2023-09-17T01:00:44.807Z,6.55
2023-09-17T01:03:13.804Z,6.53
2023-09-17T01:05:44.157Z,6.07
2023-09-17T01:08:12.776Z,5.70
2023-09-17T01:10:41.236Z,7.05
2023-09-17T01:13:10.058Z,6.03
2023-09-17T01:15:38.764Z,6.45
2023-09-17T01:18:10.699Z,6.40
2023-09-17T01:21:14.487Z,6.82
2023-09-17T01:24:14.302Z,3.92
2023-09-17T01:26:45.299Z,5.53
2023-09-17T01:29:14.799Z,5.82
2023-09-17T01:31:42.230Z,6.55
2023-09-17T01:34:09.128Z,6.32
2023-09-17T01:36:40.372Z,6.60
2023-09-17T01:39:23.291Z,5.85
2023-09-17T01:41:51.207Z,5.88
2023-09-17T01:44:20.668Z,6.93
2023-09-17T01:46:49.581Z,5.78
2023-09-17T01:49:16.592Z,6.03
2023-09-17T01:51:44.729Z,6.20
2023-09-17T01:54:11.853Z,6.93
2023-09-17T01:56:38.622Z,5.30
2023-09-17T01:59:08.221Z,5.72
2023-09-17T02:01:35.538Z,6.10
2023-09-17T02:04:02.469Z,7.13
2023-09-17T02:06:29.365Z,6.47
2023-09-17T02:08:56.643Z,7.45
2023-09-17T02:11:23.899Z,7.22
2023-09-17T02:13:50.887Z,6.22
2023-09-17T02:16:18.314Z,6.65
2023-09-17T02:18:46.604Z,6.18
2023-09-17T02:21:13.346Z,6.00
2023-09-17T02:23:40.553Z,6.72
2023-09-17T02:26:09.456Z,7.20
2023-09-17T02:28:36.623Z,7.63
2023-09-17T02:31:03.681Z,7.07
2023-09-17T02:33:34.077Z,8.25
2023-09-17T02:36:01.734Z,12.90
2023-09-17T02:38:28.890Z,29.20
2023-09-17T02:40:56.211Z,62.30
2023-09-17T02:43:23.769Z,72.40
2023-09-17T02:45:50.606Z,76.63
2023-09-17T02:48:17.424Z,69.78
2023-09-17T02:50:44.277Z,46.50
2023-09-17T02:53:11.116Z,38.13
2023-09-17T02:55:38.454Z,31.77
2023-09-17T02:58:05.285Z,23.38
2023-09-17T03:00:34.481Z,15.88
2023-09-17T03:03:02.656Z,13.75
2023-09-17T03:05:29.498Z,14.52
2023-09-17T03:07:57.674Z,22.50
2023-09-17T03:10:24.943Z,31.15
2023-09-17T03:12:52.190Z,44.58
2023-09-17T03:15:19.277Z,92.63
2023-09-17T03:17:46.637Z,141.70
2023-09-17T03:20:19.521Z,145.93
2023-09-17T03:22:48.426Z,146.10
2023-09-17T03:25:16.558Z,128.57
2023-09-17T03:27:47.179Z,103.10
2023-09-17T03:30:14.772Z,63.92
2023-09-17T03:32:53.272Z,53.78
2023-09-17T03:35:25.802Z,44.53
2023-09-17T03:37:52.572Z,34.50
2023-09-17T03:40:20.359Z,27.65
2023-09-17T03:42:48.300Z,21.30
2023-09-17T03:45:15.595Z,18.88
2023-09-17T03:47:44.848Z,17.80
2023-09-17T03:50:15.129Z,11.95
2023-09-17T03:52:48.648Z,12.23
2023-09-17T03:55:16.006Z,11.50
2023-09-17T03:57:43.952Z,11.77
2023-09-17T04:00:14.031Z,13.07
2023-09-17T04:02:43.329Z,11.98
2023-09-17T04:05:13.467Z,9.90
2023-09-17T04:07:44.105Z,10.32
2023-09-17T04:10:13.334Z,10.90
2023-09-17T04:12:42.213Z,12.10
2023-09-17T04:15:17.890Z,13.75
2023-09-17T04:17:45.999Z,26.95
2023-09-17T04:20:18.114Z,26.83
2023-09-17T04:22:47.975Z,23.48
2023-09-17T04:25:14.947Z,29.23
2023-09-17T04:27:46.231Z,62.92
2023-09-17T04:30:15.180Z,46.65
2023-09-17T04:32:44.610Z,33.60
2023-09-17T04:35:16.897Z,27.38
2023-09-17T04:37:44.695Z,19.40
2023-09-17T04:40:12.741Z,16.40
2023-09-17T04:42:44.320Z,12.05
2023-09-17T04:45:12.066Z,11.20
2023-09-17T04:47:41.188Z,10.10
2023-09-17T04:50:11.239Z,11.48
2023-09-17T04:52:38.795Z,10.52
2023-09-17T04:55:06.740Z,11.63
2023-09-17T04:57:34.033Z,13.35
2023-09-17T05:00:08.688Z,11.35
2023-09-17T05:02:35.989Z,10.10
2023-09-17T05:05:02.770Z,9.35
2023-09-17T05:07:29.582Z,8.65
2023-09-17T05:09:56.982Z,7.78
2023-09-17T05:12:23.835Z,7.68
2023-09-17T05:14:50.646Z,7.15
2023-09-17T05:17:18.668Z,7.60
2023-09-17T05:19:46.019Z,7.10
2023-09-17T05:22:12.914Z,7.57
2023-09-17T05:24:39.759Z,7.68
2023-09-17T05:27:06.602Z,7.22
2023-09-17T05:29:33.476Z,8.23
2023-09-17T05:32:01.377Z,6.72
2023-09-17T05:34:28.226Z,12.88
2023-09-17T05:36:55.017Z,10.85
2023-09-17T05:39:21.830Z,8.68
2023-09-17T05:41:48.730Z,7.75
2023-09-17T05:44:15.518Z,7.05
2023-09-17T05:46:42.372Z,7.10
2023-09-17T05:49:10.029Z,7.22
2023-09-17T05:51:36.825Z,6.70
2023-09-17T05:54:03.668Z,8.20
2023-09-17T05:56:30.822Z,6.63
2023-09-17T05:58:57.627Z,9.15
2023-09-17T06:01:24.744Z,8.25
2023-09-17T06:03:52.394Z,6.95
2023-09-17T06:06:19.673Z,8.00
2023-09-17T06:08:46.698Z,8.70
2023-09-17T06:11:13.758Z,8.40
2023-09-17T06:13:40.537Z,7.25
2023-09-17T06:16:07.385Z,7.70
2023-09-17T06:18:35.468Z,7.10
2023-09-17T06:21:02.764Z,6.47
2023-09-17T06:23:29.691Z,6.65
2023-09-17T06:25:56.553Z,7.18
2023-09-17T06:28:23.420Z,7.82
2023-09-17T06:30:50.730Z,7.50
2023-09-17T06:33:17.600Z,7.30
2023-09-17T06:35:44.357Z,7.65
2023-09-17T06:38:13.794Z,7.15
2023-09-17T06:40:40.589Z,7.10
2023-09-17T06:43:07.450Z,7.15
2023-09-17T06:45:34.261Z,7.15
2023-09-17T06:48:01.185Z,7.57
2023-09-17T06:50:27.965Z,7.65
2023-09-17T06:52:55.150Z,7.47
2023-09-17T06:55:21.945Z,10.88
2023-09-17T06:57:48.804Z,7.55
2023-09-17T07:00:16.739Z,7.43
2023-09-17T07:02:43.602Z,7.35
2023-09-17T07:05:11.655Z,7.78
2023-09-17T07:07:38.880Z,8.27
2023-09-17T07:10:06.644Z,8.48
2023-09-17T07:12:38.823Z,7.72
2023-09-17T07:15:07.716Z,7.03
2023-09-17T07:17:34.791Z,6.80
2023-09-17T07:20:02.119Z,7.25
2023-09-17T07:22:30.479Z,11.70
2023-09-17T07:24:59.841Z,8.68
2023-09-17T07:27:30.284Z,7.75
2023-09-17T07:29:58.173Z,7.57
2023-09-17T07:32:29.485Z,7.55
2023-09-17T07:34:57.046Z,8.18
2023-09-17T07:37:30.484Z,8.00
2023-09-17T07:40:06.793Z,9.82
2023-09-17T07:42:33.634Z,10.48
2023-09-17T07:45:00.637Z,7.22
2023-09-17T07:47:28.316Z,9.23
2023-09-17T07:49:55.144Z,8.02
2023-09-17T07:52:22.316Z,10.63
2023-09-17T07:54:49.412Z,7.82
2023-09-17T07:57:16.186Z,8.32
2023-09-17T07:59:42.977Z,8.15
2023-09-17T08:02:10.662Z,8.15
2023-09-17T08:04:37.595Z,7.40
2023-09-17T08:07:05.476Z,8.88
2023-09-17T08:09:32.486Z,8.40
2023-09-17T08:12:00.306Z,9.43
2023-09-17T08:14:27.537Z,7.72
2023-09-17T08:16:54.833Z,7.38
2023-09-17T08:19:21.719Z,8.88
2023-09-17T08:21:49.378Z,7.80
2023-09-17T08:24:16.876Z,8.15
2023-09-17T08:26:43.626Z,6.90
2023-09-17T08:29:11.215Z,7.57
2023-09-17T08:31:39.277Z,9.75
2023-09-17T08:34:06.115Z,6.90
2023-09-17T08:36:33.615Z,8.10
2023-09-17T08:39:00.466Z,7.35
2023-09-17T08:41:27.243Z,6.85
2023-09-17T08:43:55.476Z,6.75
2023-09-17T08:46:27.998Z,7.05
2023-09-17T08:48:54.930Z,7.07
2023-09-17T08:51:25.786Z,6.93
2023-09-17T08:54:08.922Z,8.02
2023-09-17T08:56:41.134Z,7.65
2023-09-17T08:59:14.172Z,6.38
2023-09-17T09:01:45.304Z,7.43
2023-09-17T09:04:14.578Z,7.00
2023-09-17T09:06:45.688Z,9.95
2023-09-17T09:09:14.647Z,6.70
2023-09-17T09:11:41.785Z,6.18
2023-09-17T09:14:08.710Z,7.10
2023-09-17T09:16:37.717Z,6.57
2023-09-17T09:19:06.122Z,6.78
2023-09-17T09:21:32.942Z,6.15
2023-09-17T09:23:59.862Z,5.75
2023-09-17T09:26:41.231Z,5.75
2023-09-17T09:29:09.692Z,5.53
2023-09-17T09:31:36.827Z,5.88
2023-09-17T09:34:05.226Z,6.78
2023-09-17T09:36:35.008Z,6.07
2023-09-17T09:39:03.376Z,5.90
2023-09-17T09:41:33.894Z,6.60
2023-09-17T09:44:00.859Z,5.65
2023-09-17T09:46:29.342Z,6.38
2023-09-17T09:49:03.488Z,5.55
2023-09-17T09:51:32.477Z,5.80
2023-09-17T09:53:59.257Z,5.32
2023-09-17T09:56:30.241Z,5.82
2023-09-17T09:58:58.562Z,5.63
2023-09-17T10:01:26.910Z,5.60
2023-09-17T10:03:59.489Z,4.60
2023-09-17T10:06:26.697Z,5.60
2023-09-17T10:08:54.927Z,5.32
2023-09-17T10:11:23.734Z,4.97
2023-09-17T10:13:55.097Z,5.03
2023-09-17T10:16:22.065Z,5.63
2023-09-17T10:18:52.000Z,4.90
2023-09-17T10:21:19.944Z,5.15
2023-09-17T10:23:48.141Z,6.07
2023-09-17T10:26:16.684Z,5.30
2023-09-17T10:28:45.342Z,5.70
2023-09-17T10:31:13.278Z,4.00
2023-09-17T10:33:45.305Z,7.35
2023-09-17T10:36:15.222Z,4.25
2023-09-17T10:38:45.119Z,4.28
2023-09-17T10:41:12.572Z,4.97
2023-09-17T10:43:41.179Z,4.20
2023-09-17T10:46:08.348Z,4.43
2023-09-17T10:48:35.622Z,3.97
2023-09-17T10:51:04.508Z,3.83
2023-09-17T10:53:32.495Z,8.07
2023-09-17T10:56:11.590Z,4.20
2023-09-17T10:58:43.417Z,3.55
2023-09-17T11:01:15.920Z,3.90
2023-09-17T11:03:52.408Z,4.22
2023-09-17T11:06:26.025Z,3.80
2023-09-17T11:11:26.061Z,3.10
2023-09-17T11:13:54.802Z,3.33
2023-09-17T11:16:27.339Z,3.42
2023-09-17T11:19:17.599Z,3.58
2023-09-17T11:21:50.931Z,3.28
2023-09-17T11:24:20.989Z,4.57
2023-09-17T11:26:49.781Z,4.45
2023-09-17T11:29:16.706Z,4.18
2023-09-17T11:31:52.681Z,4.35
2023-09-17T11:34:21.723Z,4.13
2023-09-17T11:36:49.477Z,4.10
2023-09-17T11:39:17.468Z,3.70
2023-09-17T11:41:52.271Z,4.05
2023-09-17T11:44:21.710Z,3.75
2023-09-17T11:46:49.737Z,3.85
2023-09-17T11:49:17.310Z,3.38
2023-09-17T11:51:48.348Z,4.15
2023-09-17T11:54:21.613Z,3.80
2023-09-17T11:56:55.102Z,4.20
2023-09-17T11:59:23.744Z,4.38
2023-09-17T12:01:59.005Z,3.53
2023-09-17T12:04:30.133Z,4.35
2023-09-17T12:06:58.550Z,3.72
2023-09-17T12:09:39.392Z,4.13
2023-09-17T12:12:07.518Z,4.00
2023-09-17T12:14:35.062Z,4.38
2023-09-17T12:17:03.057Z,4.57
2023-09-17T12:19:31.109Z,3.97
2023-09-17T12:22:00.290Z,3.88
2023-09-17T12:24:35.773Z,4.03
2023-09-17T12:27:14.675Z,3.97
2023-09-17T12:29:42.303Z,4.18
2023-09-17T12:32:13.740Z,3.85
2023-09-17T12:34:41.482Z,3.42
2023-09-17T12:37:10.659Z,3.83
2023-09-17T12:39:37.434Z,5.25
2023-09-17T12:42:04.933Z,3.88
2023-09-17T12:44:31.760Z,3.90
2023-09-17T12:46:58.696Z,3.65
2023-09-17T12:49:27.505Z,4.30
2023-09-17T12:51:54.513Z,4.13
2023-09-17T12:54:22.833Z,3.60
2023-09-17T12:56:51.901Z,3.92
2023-09-17T12:59:30.338Z,4.07
2023-09-17T13:02:00.977Z,4.22
2023-09-17T13:04:40.409Z,3.78
2023-09-17T13:07:15.319Z,3.33
2023-09-17T13:09:43.100Z,3.72
2023-09-17T13:12:10.038Z,3.95
2023-09-17T13:14:38.678Z,4.03
2023-09-17T13:17:06.134Z,4.35
2023-09-17T13:19:33.532Z,3.90
2023-09-17T13:22:01.000Z,3.88
2023-09-17T13:24:28.084Z,4.15
2023-09-17T13:27:00.982Z,3.80
2023-09-17T13:29:43.705Z,3.63
2023-09-17T13:32:12.137Z,4.00
2023-09-17T13:34:42.042Z,3.92
2023-09-17T13:37:10.530Z,3.55
2023-09-17T13:39:47.272Z,3.72
2023-09-17T13:42:14.413Z,5.40
2023-09-17T13:44:41.356Z,3.75
2023-09-17T13:47:12.489Z,3.83
2023-09-17T13:49:41.616Z,3.80
2023-09-17T13:52:09.719Z,4.15
2023-09-17T13:54:41.971Z,3.70
2023-09-17T13:57:08.784Z,3.72
2023-09-17T13:59:35.845Z,3.83
2023-09-17T14:02:06.945Z,3.83
2023-09-17T14:04:36.646Z,3.80
2023-09-17T14:07:03.822Z,3.63
2023-09-17T14:09:30.618Z,4.28
2023-09-17T14:11:57.389Z,3.83
2023-09-17T14:14:24.148Z,3.83
2023-09-17T14:16:51.097Z,3.80
2023-09-17T14:19:19.784Z,3.60
2023-09-17T14:21:48.170Z,4.22
2023-09-17T14:24:15.132Z,4.05
2023-09-17T14:26:42.001Z,3.30
2023-09-17T14:29:08.848Z,4.20
2023-09-17T14:31:35.857Z,3.75
2023-09-17T14:34:02.978Z,4.75
2023-09-17T14:36:29.877Z,3.53
2023-09-17T14:38:56.867Z,5.50
2023-09-17T14:41:23.729Z,3.90
2023-09-17T14:43:50.900Z,4.07
2023-09-17T14:46:17.898Z,4.10
2023-09-17T14:48:44.749Z,4.47
2023-09-17T14:51:11.503Z,4.10
2023-09-17T14:53:38.338Z,4.20
2023-09-17T14:56:05.240Z,3.63
2023-09-17T14:58:32.125Z,6.07
2023-09-17T15:01:01.544Z,4.13
2023-09-17T15:03:30.817Z,3.65
2023-09-17T15:05:58.021Z,3.67
2023-09-17T15:08:25.416Z,3.22
2023-09-17T15:10:52.508Z,5.00
2023-09-17T15:13:19.320Z,3.25
2023-09-17T15:15:49.430Z,3.80
2023-09-17T15:18:17.360Z,3.28
2023-09-17T15:20:47.131Z,4.78
2023-09-17T15:23:14.182Z,3.35
2023-09-17T15:25:41.020Z,3.25
2023-09-17T15:28:08.595Z,3.78
2023-09-17T15:30:35.493Z,4.55
2023-09-17T15:33:02.625Z,3.22
2023-09-17T15:35:30.872Z,3.97
2023-09-17T15:38:07.082Z,4.18
2023-09-17T15:40:35.479Z,3.30
2023-09-17T15:43:03.179Z,3.58
2023-09-17T15:45:30.131Z,3.47
2023-09-17T15:47:57.321Z,3.42
2023-09-17T15:50:24.519Z,3.17
2023-09-17T15:52:51.916Z,3.55
2023-09-17T15:55:18.774Z,4.15
2023-09-17T15:57:45.660Z,3.83
2023-09-17T16:00:14.058Z,3.80
2023-09-17T16:02:41.338Z,3.95
2023-09-17T16:05:08.517Z,4.32
2023-09-17T16:07:35.600Z,3.90
2023-09-17T16:10:02.459Z,3.95
2023-09-17T16:12:29.409Z,3.97
2023-09-17T16:14:57.272Z,3.83
2023-09-17T16:17:24.064Z,5.25
2023-09-17T16:19:56.395Z,5.53
2023-09-17T16:22:28.061Z,4.47
2023-09-17T16:24:54.961Z,4.00
2023-09-17T16:27:21.800Z,4.38
2023-09-17T16:29:48.734Z,7.45
2023-09-17T16:32:16.413Z,4.80
2023-09-17T16:34:43.480Z,4.82
2023-09-17T16:37:10.822Z,5.68
2023-09-17T16:39:37.675Z,4.20
2023-09-17T16:42:04.765Z,4.05
2023-09-17T16:44:31.595Z,4.13
2023-09-17T16:46:58.481Z,4.05
2023-09-17T16:49:25.293Z,4.93
2023-09-17T16:51:52.117Z,6.82
2023-09-17T16:54:19.541Z,4.40
2023-09-17T16:56:46.387Z,4.25
2023-09-17T16:59:13.566Z,4.25
2023-09-17T17:01:40.738Z,4.13
2023-09-17T17:04:07.784Z,5.38
2023-09-17T17:06:34.668Z,3.75
2023-09-17T17:09:01.481Z,6.50
2023-09-17T17:11:30.689Z,4.25
2023-09-17T17:13:57.737Z,6.80
2023-09-17T17:16:24.646Z,4.45
2023-09-17T17:18:51.513Z,4.28
2023-09-17T17:21:19.259Z,4.78
2023-09-17T17:23:46.085Z,5.03
2023-09-17T17:26:13.044Z,7.47
2023-09-17T17:28:40.224Z,6.25
2023-09-17T17:31:07.033Z,7.03
2023-09-17T17:33:33.836Z,7.28
2023-09-17T17:36:01.744Z,8.32
2023-09-17T17:38:28.633Z,6.68
2023-09-17T17:40:55.431Z,8.30
2023-09-17T17:43:22.391Z,6.00
2023-09-17T17:45:49.383Z,5.75
2023-09-17T17:48:16.792Z,8.18
2023-09-17T17:50:45.664Z,7.15
2023-09-17T17:53:13.528Z,6.10
2023-09-17T17:55:40.621Z,8.70
2023-09-17T17:58:07.815Z,5.88
2023-09-17T18:00:34.748Z,7.63
2023-09-17T18:03:01.865Z,5.90
2023-09-17T18:05:30.050Z,6.38
2023-09-17T18:07:56.858Z,6.68
2023-09-17T18:10:23.864Z,5.85
2023-09-17T18:12:50.668Z,8.10
2023-09-17T18:15:21.149Z,6.18
2023-09-17T18:17:49.008Z,6.40
2023-09-17T18:20:17.845Z,5.85
2023-09-17T18:22:44.795Z,6.20
2023-09-17T18:25:11.583Z,6.00
2023-09-17T18:27:44.018Z,5.22
2023-09-17T18:30:11.258Z,6.07
2023-09-17T18:32:38.047Z,5.60
2023-09-17T18:35:05.709Z,5.57
2023-09-17T18:37:34.171Z,6.97
2023-09-17T18:40:01.007Z,6.45
2023-09-17T18:42:30.193Z,6.28
2023-09-17T18:44:57.901Z,8.50
2023-09-17T18:47:24.714Z,7.45
2023-09-17T18:49:53.237Z,7.07
2023-09-17T18:52:20.305Z,5.95
2023-09-17T18:54:47.437Z,6.28
2023-09-17T18:57:16.457Z,6.35
2023-09-17T18:59:45.429Z,5.47
2023-09-17T19:02:12.459Z,6.43
2023-09-17T19:04:39.256Z,5.68
2023-09-17T19:07:06.028Z,6.05
2023-09-17T19:09:32.795Z,6.97
2023-09-17T19:12:00.666Z,6.38
2023-09-17T19:14:27.570Z,6.13
2023-09-17T19:16:54.388Z,6.43
2023-09-17T19:19:21.613Z,6.25
2023-09-17T19:21:48.395Z,5.55
2023-09-17T19:24:15.206Z,6.15
2023-09-17T19:26:42.400Z,6.57
2023-09-17T19:29:09.502Z,5.43
2023-09-17T19:31:36.331Z,6.90
2023-09-17T19:34:04.804Z,6.88
2023-09-17T19:36:34.497Z,8.63
2023-09-17T19:39:01.363Z,7.03
2023-09-17T19:41:34.566Z,8.07
2023-09-17T19:44:01.579Z,7.85
2023-09-17T19:46:29.821Z,6.72
2023-09-17T19:48:56.833Z,7.07
2023-09-17T19:51:23.663Z,6.55
2023-09-17T19:53:50.586Z,5.90
2023-09-17T19:56:19.843Z,6.05
2023-09-17T19:58:46.753Z,5.88
2023-09-17T20:01:13.610Z,6.60
2023-09-17T20:03:40.704Z,5.75
2023-09-17T20:06:07.615Z,6.43
2023-09-17T20:08:34.789Z,6.78
2023-09-17T20:11:01.788Z,6.80
2023-09-17T20:13:28.753Z,6.22
2023-09-17T20:15:55.605Z,6.45
2023-09-17T20:18:22.437Z,6.20
2023-09-17T20:20:50.156Z,6.63
2023-09-17T20:23:17.043Z,6.45
2023-09-17T20:25:45.656Z,6.88
2023-09-17T20:28:14.680Z,6.13
2023-09-17T20:30:42.878Z,6.28
2023-09-17T20:33:11.156Z,6.07
2023-09-17T20:35:40.623Z,6.28
2023-09-17T20:38:07.626Z,6.15
2023-09-17T20:40:36.024Z,6.57
2023-09-17T20:43:03.265Z,7.00
2023-09-17T20:45:30.129Z,6.97
2023-09-17T20:47:57.741Z,6.47
2023-09-17T20:50:25.461Z,6.95
2023-09-17T20:52:52.966Z,5.97
2023-09-17T20:55:19.765Z,7.22
2023-09-17T20:57:46.581Z,6.03
2023-09-17T21:00:14.665Z,5.78
2023-09-17T21:02:41.722Z,6.45
2023-09-17T21:05:09.046Z,5.93
2023-09-17T21:07:35.887Z,6.55
2023-09-17T21:10:04.072Z,7.10
2023-09-17T21:12:33.816Z,6.95
2023-09-17T21:15:01.141Z,6.80
2023-09-17T21:17:28.489Z,6.88
2023-09-17T21:19:55.372Z,7.00
2023-09-17T21:22:23.669Z,6.53
2023-09-17T21:24:50.537Z,6.15
2023-09-17T21:27:17.286Z,6.60
2023-09-17T21:29:44.900Z,6.00
2023-09-17T21:32:11.912Z,6.63
2023-09-17T21:34:39.297Z,5.95
2023-09-17T21:37:07.455Z,5.97
2023-09-17T21:39:34.241Z,6.95
2023-09-17T21:42:01.071Z,6.03
2023-09-17T21:44:28.240Z,6.07
2023-09-17T21:46:56.686Z,6.00
2023-09-17T21:49:23.575Z,6.15
2023-09-17T21:51:50.356Z,6.05
2023-09-17T21:54:17.565Z,6.55
2023-09-17T21:56:44.709Z,6.50
2023-09-17T21:59:12.091Z,6.03
2023-09-17T22:01:38.972Z,6.20
2023-09-17T22:04:06.296Z,6.18
2023-09-17T22:06:34.169Z,5.93
2023-09-17T22:09:02.958Z,5.95
2023-09-17T22:11:30.839Z,6.03
2023-09-17T22:13:57.652Z,6.25
2023-09-17T22:16:24.848Z,6.53
2023-09-17T22:18:52.316Z,6.22
2023-09-17T22:21:19.337Z,5.60
2023-09-17T22:23:46.165Z,5.85
2023-09-17T22:26:13.048Z,6.10
2023-09-17T22:28:39.864Z,7.05
2023-09-17T22:31:15.360Z,5.82
2023-09-17T22:33:44.355Z,6.00
2023-09-17T22:36:12.774Z,5.60
2023-09-17T22:38:44.867Z,6.47
2023-09-17T22:41:24.285Z,5.93
2023-09-17T22:43:57.621Z,6.65
2023-09-17T22:46:32.196Z,6.05
2023-09-17T22:48:59.533Z,6.20
2023-09-17T22:51:31.372Z,6.28
2023-09-17T22:53:59.186Z,6.28
2023-09-17T22:56:26.632Z,6.00
2023-09-17T22:58:53.681Z,5.70
2023-09-17T23:01:23.652Z,6.88
2023-09-17T23:03:50.464Z,5.88
2023-09-17T23:06:17.514Z,6.35
2023-09-17T23:08:44.431Z,6.05
2023-09-17T23:11:11.485Z,6.38
2023-09-17T23:13:38.728Z,6.47
2023-09-17T23:16:05.804Z,6.45
2023-09-17T23:18:33.824Z,5.53
2023-09-17T23:21:04.559Z,5.57
2023-09-17T23:23:32.021Z,5.70
2023-09-17T23:25:58.967Z,6.00
2023-09-17T23:28:26.642Z,6.13
2023-09-17T23:30:54.578Z,6.03
2023-09-17T23:33:21.547Z,6.03
2023-09-17T23:35:50.975Z,6.10
2023-09-17T23:38:18.758Z,5.57
2023-09-17T23:40:45.668Z,5.80
2023-09-17T23:43:13.149Z,5.95
2023-09-17T23:45:42.728Z,6.15
2023-09-17T23:48:10.049Z,6.72
2023-09-17T23:50:37.030Z,7.45
2023-09-17T23:53:07.958Z,6.05
2023-09-17T23:55:35.396Z,6.25
2023-09-17T23:58:02.231Z,6.00
